createdAt,value
2022-10-22T00:01:58.435Z,66.80
2022-10-22T00:04:26.475Z,66.51
2022-10-22T00:06:54.392Z,67.11
2022-10-22T00:09:22.166Z,66.61
2022-10-22T00:11:49.638Z,66.91
2022-10-22T00:14:17.263Z,67.17
2022-10-22T00:16:44.727Z,66.28
2022-10-22T00:19:13.626Z,66.65
2022-10-22T00:21:41.046Z,66.48
2022-10-22T00:24:08.636Z,66.42
2022-10-22T00:26:36.073Z,66.83
2022-10-22T00:29:03.562Z,66.52
2022-10-22T00:31:31.221Z,66.83
2022-10-22T00:33:58.646Z,66.52
2022-10-22T00:36:26.099Z,66.71
2022-10-22T00:38:53.718Z,66.38
2022-10-22T00:41:21.178Z,66.94
2022-10-22T00:44:05.683Z,67.55
2022-10-22T00:46:33.291Z,67.73
2022-10-22T00:49:04.366Z,67.21
2022-10-22T00:51:36.057Z,67.45
2022-10-22T00:54:07.773Z,67.13
2022-10-22T00:56:35.262Z,67.56
2022-10-22T00:59:03.639Z,67.73
2022-10-22T01:01:32.352Z,67.32
2022-10-22T01:04:00.409Z,67.23
2022-10-22T01:06:31.698Z,67.80
2022-10-22T01:09:37.720Z,67.16
2022-10-22T01:12:15.237Z,67.06
2022-10-22T01:14:48.358Z,67.20
2022-10-22T01:17:25.485Z,67.11
2022-10-22T01:20:22.848Z,67.60
2022-10-22T01:23:14.139Z,67.67
2022-10-22T01:26:09.749Z,67.54
2022-10-22T01:28:37.106Z,67.81
2022-10-22T01:31:06.420Z,67.16
2022-10-22T01:33:34.756Z,67.22
2022-10-22T01:36:04.795Z,66.74
2022-10-22T01:38:32.968Z,67.57
2022-10-22T01:41:01.442Z,67.61
2022-10-22T01:43:28.923Z,67.65
2022-10-22T01:46:02.315Z,67.00
2022-10-22T01:48:51.144Z,67.21
2022-10-22T01:51:47.309Z,67.36
2022-10-22T01:54:38.993Z,67.75
2022-10-22T01:57:33.794Z,68.12
2022-10-22T02:00:10.280Z,67.43
2022-10-22T02:05:25.674Z,67.42
2022-10-22T02:08:01.937Z,67.19
2022-10-22T02:10:31.572Z,67.34
2022-10-22T02:13:01.551Z,67.62
2022-10-22T02:15:52.153Z,67.06
2022-10-22T02:18:24.728Z,67.30
2022-10-22T02:20:52.287Z,66.18
2022-10-22T02:23:21.485Z,67.17
2022-10-22T02:25:56.542Z,67.35
2022-10-22T02:28:39.393Z,67.09
2022-10-22T02:31:21.901Z,66.89
2022-10-22T02:33:53.731Z,66.59
2022-10-22T02:36:23.140Z,66.95
2022-10-22T02:38:51.958Z,66.33
2022-10-22T02:41:20.593Z,67.48
2022-10-22T02:43:55.911Z,66.69
2022-10-22T02:46:24.868Z,66.89
2022-10-22T02:48:52.309Z,67.22
2022-10-22T02:51:19.726Z,66.98
2022-10-22T02:53:47.109Z,66.65
2022-10-22T02:56:14.792Z,67.14
2022-10-22T02:58:42.225Z,67.33
2022-10-22T03:01:12.370Z,67.18
2022-10-22T03:03:42.738Z,66.98
2022-10-22T03:06:10.167Z,66.35
2022-10-22T03:08:37.652Z,66.72
2022-10-22T03:11:05.115Z,66.62
2022-10-22T03:13:32.626Z,67.58
2022-10-22T03:16:00.133Z,67.23
2022-10-22T03:18:27.584Z,66.67
2022-10-22T03:21:24.819Z,66.79
2022-10-22T03:23:52.790Z,66.55
2022-10-22T03:26:20.804Z,66.59
2022-10-22T03:28:48.970Z,66.71
2022-10-22T03:31:16.513Z,66.98
2022-10-22T03:33:43.916Z,66.67
2022-10-22T03:36:11.489Z,67.02
2022-10-22T03:38:40.478Z,67.30
2022-10-22T03:41:08.498Z,66.50
2022-10-22T03:43:38.298Z,66.07
2022-10-22T03:46:06.012Z,67.04
2022-10-22T03:48:33.519Z,66.47
2022-10-22T03:51:00.942Z,67.19
2022-10-22T03:53:28.336Z,66.13
2022-10-22T03:55:55.857Z,66.86
2022-10-22T03:58:23.334Z,67.35
2022-10-22T04:00:50.889Z,66.92
2022-10-22T04:03:18.309Z,67.05
2022-10-22T04:05:45.712Z,67.58
2022-10-22T04:08:13.156Z,67.01
2022-10-22T04:10:40.570Z,67.16
2022-10-22T04:13:07.946Z,66.54
2022-10-22T04:15:35.407Z,66.98
2022-10-22T04:18:02.831Z,66.94
2022-10-22T04:20:30.287Z,66.98
2022-10-22T04:22:57.682Z,66.80
2022-10-22T04:25:25.206Z,66.98
2022-10-22T04:27:52.634Z,67.30
2022-10-22T04:30:20.051Z,66.99
2022-10-22T04:32:47.617Z,66.61
2022-10-22T04:35:15.469Z,66.92
2022-10-22T04:37:43.470Z,66.72
2022-10-22T04:40:12.164Z,67.05
2022-10-22T04:42:39.722Z,66.97
2022-10-22T04:45:07.823Z,66.89
2022-10-22T04:47:35.409Z,67.24
2022-10-22T04:50:02.958Z,66.37
2022-10-22T04:52:31.967Z,67.35
2022-10-22T04:54:59.397Z,66.80
2022-10-22T04:57:31.271Z,66.50
2022-10-22T04:59:58.783Z,66.47
2022-10-22T05:02:26.552Z,66.55
2022-10-22T05:04:54.002Z,67.12
2022-10-22T05:07:21.496Z,66.27
2022-10-22T05:09:48.992Z,66.21
2022-10-22T05:12:16.480Z,66.59
2022-10-22T05:14:44.820Z,67.47
2022-10-22T05:17:12.738Z,66.96
2022-10-22T05:19:40.168Z,66.59
2022-10-22T05:22:07.582Z,66.32
2022-10-22T05:24:37.058Z,66.06
2022-10-22T05:27:04.676Z,66.23
2022-10-22T05:29:35.554Z,66.86
2022-10-22T05:32:02.991Z,66.33
2022-10-22T05:34:30.814Z,66.20
2022-10-22T05:36:58.296Z,65.93
2022-10-22T05:39:25.729Z,66.20
2022-10-22T05:41:54.196Z,66.44
2022-10-22T05:44:21.730Z,66.23
2022-10-22T05:46:49.350Z,66.87
2022-10-22T05:49:17.220Z,66.04
2022-10-22T05:51:46.546Z,67.02
2022-10-22T05:54:19.376Z,65.86
2022-10-22T05:56:50.067Z,66.59
2022-10-22T05:59:17.546Z,66.35
2022-10-22T06:01:45.075Z,66.29
2022-10-22T06:04:13.866Z,66.18
2022-10-22T06:06:47.953Z,65.35
2022-10-22T06:09:31.183Z,65.49
2022-10-22T06:11:59.412Z,65.85
2022-10-22T06:14:27.373Z,65.61
2022-10-22T06:16:55.387Z,65.57
2022-10-22T06:19:29.552Z,65.49
2022-10-22T06:21:58.154Z,65.56
2022-10-22T06:24:25.525Z,65.31
2022-10-22T06:26:53.158Z,64.98
2022-10-22T06:29:22.099Z,65.04
2022-10-22T06:31:50.157Z,65.68
2022-10-22T06:34:20.895Z,65.16
2022-10-22T06:36:48.558Z,65.03
2022-10-22T06:39:18.133Z,65.06
2022-10-22T06:41:46.007Z,64.95
2022-10-22T06:44:19.675Z,64.65
2022-10-22T06:46:52.289Z,65.22
2022-10-22T06:49:21.195Z,64.61
2022-10-22T06:51:53.811Z,64.81
2022-10-22T06:54:22.581Z,64.83
2022-10-22T06:56:50.195Z,64.46
2022-10-22T06:59:18.280Z,64.11
2022-10-22T07:01:45.896Z,64.08
2022-10-22T07:04:13.431Z,64.96
2022-10-22T07:06:40.894Z,64.67
2022-10-22T07:09:08.582Z,64.17
2022-10-22T07:11:44.542Z,63.34
2022-10-22T07:14:13.018Z,63.90
2022-10-22T07:16:45.869Z,63.36
2022-10-22T07:19:13.869Z,63.82
2022-10-22T07:21:41.535Z,64.49
2022-10-22T07:24:09.554Z,63.90
2022-10-22T07:26:39.886Z,63.77
2022-10-22T07:29:07.670Z,63.81
2022-10-22T07:31:35.181Z,63.27
2022-10-22T07:34:02.664Z,63.66
2022-10-22T07:36:30.212Z,63.69
2022-10-22T07:39:00.178Z,63.33
2022-10-22T07:41:32.343Z,63.16
2022-10-22T07:44:00.225Z,62.96
2022-10-22T07:46:28.258Z,62.67
2022-10-22T07:48:55.894Z,63.11
2022-10-22T07:51:25.514Z,62.99
2022-10-22T07:53:53.208Z,63.30
2022-10-22T07:56:22.172Z,62.53
2022-10-22T07:58:52.753Z,61.81
2022-10-22T08:01:22.794Z,62.55
2022-10-22T08:05:05.037Z,62.00
2022-10-22T08:07:32.508Z,62.56
2022-10-22T08:10:00.023Z,62.56
2022-10-22T08:12:27.524Z,62.36
2022-10-22T08:14:55.091Z,62.78
2022-10-22T08:17:22.569Z,62.45
2022-10-22T08:19:50.049Z,62.08
2022-10-22T08:22:17.439Z,61.66
2022-10-22T08:24:44.998Z,61.89
2022-10-22T08:27:12.821Z,61.09
2022-10-22T08:29:40.401Z,61.17
2022-10-22T08:32:07.826Z,61.12
2022-10-22T08:34:35.652Z,61.34
2022-10-22T08:37:03.921Z,61.07
2022-10-22T08:39:31.377Z,61.10
2022-10-22T08:42:23.219Z,60.87
2022-10-22T08:44:53.334Z,61.22
2022-10-22T08:47:39.387Z,60.83
2022-10-22T08:50:12.575Z,60.94
2022-10-22T08:52:44.812Z,61.22
2022-10-22T08:55:18.133Z,61.20
2022-10-22T08:57:54.570Z,60.77
2022-10-22T09:00:56.162Z,60.29
2022-10-22T09:03:46.359Z,60.40
2022-10-22T09:06:19.062Z,60.51
2022-10-22T09:08:47.984Z,60.34
2022-10-22T09:11:24.371Z,59.78
2022-10-22T09:17:19.683Z,59.80
2022-10-22T09:20:06.197Z,60.04
2022-10-22T09:22:58.551Z,60.27
2022-10-22T09:25:29.521Z,59.70
2022-10-22T09:28:00.425Z,59.48
2022-10-22T09:30:30.556Z,59.62
2022-10-22T09:33:11.578Z,59.37
2022-10-22T09:35:56.627Z,59.16
2022-10-22T09:38:28.507Z,59.24
2022-10-22T09:40:59.927Z,59.44
2022-10-22T09:43:29.021Z,59.22
2022-10-22T09:45:59.468Z,59.43
2022-10-22T09:48:41.072Z,59.06
2022-10-22T09:52:00.028Z,58.20
2022-10-22T09:54:33.180Z,59.33
2022-10-22T09:57:21.757Z,58.96
2022-10-22T09:59:53.980Z,58.83
2022-10-22T10:02:38.120Z,58.42
2022-10-22T10:05:07.846Z,58.68
2022-10-22T10:07:36.838Z,58.28
2022-10-22T10:10:28.018Z,58.86
2022-10-22T10:13:11.975Z,58.66
2022-10-22T10:15:52.974Z,58.66
2022-10-22T10:19:01.332Z,58.05
2022-10-22T10:21:49.791Z,58.56
2022-10-22T10:24:27.846Z,58.97
2022-10-22T10:27:30.370Z,58.30
2022-10-22T10:30:18.967Z,58.51
2022-10-22T10:33:01.709Z,57.99
2022-10-22T10:35:44.517Z,58.37
2022-10-22T10:38:25.931Z,58.31
2022-10-22T10:41:40.946Z,58.40
2022-10-22T10:44:37.266Z,58.69
2022-10-22T10:47:19.427Z,58.59
2022-10-22T10:49:48.058Z,58.72
2022-10-22T10:52:45.698Z,58.38
2022-10-22T10:55:49.614Z,58.35
2022-10-22T10:58:26.807Z,58.43
2022-10-22T11:00:58.618Z,58.62
2022-10-22T11:03:57.993Z,58.59
2022-10-22T11:06:26.830Z,58.58
2022-10-22T11:09:03.762Z,58.94
2022-10-22T11:11:39.065Z,58.44
2022-10-22T11:14:20.187Z,58.39
2022-10-22T11:17:01.924Z,58.40
2022-10-22T11:19:51.191Z,58.23
2022-10-22T11:22:44.379Z,57.69
2022-10-22T11:25:18.101Z,57.95
2022-10-22T11:28:11.321Z,58.26
2022-10-22T11:30:43.398Z,57.60
2022-10-22T11:33:16.047Z,57.82
2022-10-22T11:35:45.448Z,58.04
2022-10-22T11:38:16.666Z,58.29
2022-10-22T11:41:18.997Z,57.74
2022-10-22T11:43:56.457Z,57.58
2022-10-22T11:46:23.904Z,57.53
2022-10-22T11:49:08.446Z,57.07
2022-10-22T11:51:40.073Z,57.45
2022-10-22T11:54:32.325Z,57.10
2022-10-22T11:57:14.911Z,57.21
2022-10-22T11:59:48.183Z,56.97
2022-10-22T12:02:29.618Z,56.64
2022-10-22T12:05:22.659Z,56.95
2022-10-22T12:08:00.406Z,56.74
2022-10-22T12:10:55.860Z,56.60
2022-10-22T12:13:32.603Z,56.93
2022-10-22T12:16:04.822Z,57.13
2022-10-22T12:18:41.641Z,56.83
2022-10-22T12:21:15.154Z,56.78
2022-10-22T12:23:44.977Z,56.83
2022-10-22T12:26:27.731Z,56.86
2022-10-22T12:29:04.794Z,57.03
2022-10-22T12:31:37.465Z,57.18
2022-10-22T12:34:15.012Z,57.26
2022-10-22T12:36:43.658Z,57.25
2022-10-22T12:39:20.808Z,57.50
2022-10-22T12:41:49.007Z,57.48
2022-10-22T12:44:18.317Z,57.62
2022-10-22T12:46:52.937Z,59.61
2022-10-22T12:49:29.285Z,59.15
2022-10-22T12:52:04.203Z,49.83
2022-10-22T12:54:34.481Z,48.59
2022-10-22T12:57:02.657Z,48.29
2022-10-22T12:59:45.901Z,48.97
2022-10-22T13:02:26.457Z,49.94
2022-10-22T13:05:20.917Z,51.74
2022-10-22T13:07:52.095Z,53.69
2022-10-22T13:10:42.432Z,54.30
2022-10-22T13:13:31.116Z,54.21
2022-10-22T13:16:24.598Z,55.42
2022-10-22T13:18:53.274Z,55.72
2022-10-22T13:21:28.526Z,55.54
2022-10-22T13:23:59.931Z,56.10
2022-10-22T13:26:36.550Z,56.44
2022-10-22T13:29:12.523Z,56.92
2022-10-22T13:31:46.765Z,57.06
2022-10-22T13:34:21.529Z,57.45
2022-10-22T13:36:49.932Z,57.12
2022-10-22T13:39:22.440Z,57.48
2022-10-22T13:41:51.431Z,57.31
2022-10-22T13:44:19.971Z,58.00
2022-10-22T13:46:49.955Z,58.25
2022-10-22T13:49:20.693Z,57.91
2022-10-22T13:51:48.254Z,57.78
2022-10-22T13:54:22.218Z,58.78
2022-10-22T13:56:59.333Z,58.54
2022-10-22T13:59:26.741Z,58.99
2022-10-22T14:01:55.083Z,59.46
2022-10-22T14:04:22.556Z,59.88
2022-10-22T14:06:50.056Z,59.40
2022-10-22T14:09:18.412Z,59.48
2022-10-22T14:11:45.836Z,60.12
2022-10-22T14:14:17.447Z,60.29
2022-10-22T14:16:45.137Z,60.41
2022-10-22T14:19:16.882Z,61.54
2022-10-22T14:21:44.497Z,61.29
2022-10-22T14:24:13.251Z,61.15
2022-10-22T14:26:41.358Z,61.88
2022-10-22T14:29:10.182Z,62.35
2022-10-22T14:31:44.324Z,61.81
2022-10-22T14:34:14.564Z,63.13
2022-10-22T14:36:44.277Z,62.52
2022-10-22T14:39:13.093Z,63.25
2022-10-22T14:41:41.428Z,62.65
2022-10-22T14:44:14.609Z,63.21
2022-10-22T14:46:44.631Z,63.01
2022-10-22T14:49:12.494Z,62.75
2022-10-22T14:51:39.913Z,64.49
2022-10-22T14:54:07.339Z,63.71
2022-10-22T14:56:34.873Z,63.99
2022-10-22T14:59:02.284Z,63.65
2022-10-22T15:03:21.184Z,64.60
2022-10-22T15:04:32.752Z,64.29
2022-10-22T15:07:00.195Z,64.05
2022-10-22T15:09:27.627Z,64.58
2022-10-22T15:11:55.422Z,64.45
2022-10-22T15:14:22.963Z,65.02
2022-10-22T15:16:50.387Z,65.01
2022-10-22T15:19:17.801Z,64.53
2022-10-22T15:21:45.271Z,65.05
2022-10-22T15:24:12.712Z,65.36
2022-10-22T15:26:40.278Z,64.53
2022-10-22T15:29:07.740Z,65.59
2022-10-22T15:31:57.985Z,65.64
2022-10-22T15:34:31.648Z,65.35
2022-10-22T15:37:01.750Z,65.79
2022-10-22T15:39:29.795Z,65.33
2022-10-22T15:41:57.680Z,65.78
2022-10-22T15:44:28.536Z,65.98
2022-10-22T15:46:57.088Z,66.74
2022-10-22T15:52:09.372Z,66.48
2022-10-22T15:54:37.079Z,66.34
2022-10-22T15:57:08.715Z,66.19
2022-10-22T15:59:36.671Z,66.98
2022-10-22T16:02:04.223Z,66.37
2022-10-22T16:04:31.796Z,68.09
2022-10-22T16:07:00.110Z,67.84
2022-10-22T16:09:28.110Z,67.47
2022-10-22T16:11:56.586Z,67.40
2022-10-22T16:14:24.378Z,67.95
2022-10-22T16:16:54.603Z,67.82
2022-10-22T16:19:24.499Z,67.23
2022-10-22T16:21:54.736Z,68.20
2022-10-22T16:24:23.110Z,68.65
2022-10-22T16:26:50.776Z,68.55
2022-10-22T16:29:21.106Z,68.26
2022-10-22T16:31:48.900Z,68.04
2022-10-22T16:34:17.187Z,67.93
2022-10-22T16:36:44.833Z,68.35
2022-10-22T16:39:12.386Z,68.31
2022-10-22T16:41:40.176Z,68.66
2022-10-22T16:44:09.026Z,68.97
2022-10-22T16:46:39.783Z,68.66
2022-10-22T16:49:23.731Z,68.69
2022-10-22T16:51:51.205Z,69.02
2022-10-22T16:54:18.778Z,69.22
2022-10-22T16:56:46.214Z,69.12
2022-10-22T16:59:13.607Z,68.79
2022-10-22T17:01:41.654Z,68.80
2022-10-22T17:04:11.520Z,69.19
2022-10-22T17:06:42.105Z,68.96
2022-10-22T17:09:11.027Z,69.66
2022-10-22T17:11:41.312Z,69.31
2022-10-22T17:14:10.433Z,69.63
2022-10-22T17:16:37.834Z,70.47
2022-10-22T17:19:05.719Z,69.93
2022-10-22T17:21:34.256Z,69.80
2022-10-22T17:24:01.857Z,69.28
2022-10-22T17:26:29.382Z,69.76
2022-10-22T17:28:56.956Z,69.00
2022-10-22T17:31:25.415Z,68.79
2022-10-22T17:33:55.202Z,69.44
2022-10-22T17:36:24.189Z,69.24
2022-10-22T17:38:56.237Z,69.39
2022-10-22T17:41:28.105Z,68.80
2022-10-22T17:43:56.774Z,69.71
2022-10-22T17:46:26.463Z,69.40
2022-10-22T17:48:56.507Z,69.94
2022-10-22T17:51:25.401Z,69.67
2022-10-22T17:53:53.057Z,70.29
2022-10-22T17:56:26.351Z,69.63
2022-10-22T17:58:54.440Z,70.47
2022-10-22T18:01:23.715Z,68.84
2022-10-22T18:03:52.679Z,70.09
2022-10-22T18:06:20.422Z,69.01
2022-10-22T18:08:48.124Z,69.46
2022-10-22T18:11:21.067Z,69.43
2022-10-22T18:13:56.876Z,69.82
2022-10-22T18:16:25.010Z,69.79
2022-10-22T18:18:55.101Z,69.93
2022-10-22T18:21:24.609Z,70.20
2022-10-22T18:23:52.759Z,69.62
2022-10-22T18:26:24.362Z,69.98
2022-10-22T18:28:54.729Z,69.87
2022-10-22T18:31:26.675Z,69.53
2022-10-22T18:33:55.908Z,69.98
2022-10-22T18:36:25.782Z,70.19
2022-10-22T18:39:03.464Z,69.47
2022-10-22T18:41:33.061Z,69.98
2022-10-22T18:44:02.846Z,69.39
2022-10-22T18:46:32.529Z,69.78
2022-10-22T18:49:00.434Z,69.56
2022-10-22T18:51:33.316Z,69.61
2022-10-22T18:54:05.895Z,69.24
2022-10-22T18:56:45.747Z,69.66
2022-10-22T18:59:19.681Z,70.26
2022-10-22T19:01:47.184Z,69.78
2022-10-22T19:04:15.031Z,70.59
2022-10-22T19:06:45.585Z,69.75
2022-10-22T19:09:17.810Z,70.47
2022-10-22T19:11:45.741Z,69.27
2022-10-22T19:14:15.091Z,69.76
2022-10-22T19:16:42.630Z,70.29
2022-10-22T19:19:10.126Z,70.13
2022-10-22T19:21:38.755Z,70.01
2022-10-22T19:24:06.578Z,69.73
2022-10-22T19:26:34.627Z,69.72
2022-10-22T19:29:03.290Z,70.01
2022-10-22T19:31:31.524Z,70.91
2022-10-22T19:34:02.616Z,70.20
2022-10-22T19:36:32.823Z,70.02
2022-10-22T19:39:00.994Z,70.91
2022-10-22T19:41:30.103Z,71.27
2022-10-22T19:43:58.957Z,70.86
2022-10-22T19:46:28.435Z,70.94
2022-10-22T19:48:57.538Z,71.16
2022-10-22T19:51:27.958Z,71.15
2022-10-22T19:54:19.037Z,70.48
2022-10-22T19:56:47.364Z,70.70
2022-10-22T19:59:16.832Z,71.28
2022-10-22T20:01:44.388Z,71.22
2022-10-22T20:04:15.840Z,71.10
2022-10-22T20:06:43.766Z,71.71
2022-10-22T20:09:14.175Z,71.75
2022-10-22T20:11:42.560Z,71.84
2022-10-22T20:14:10.030Z,71.54
2022-10-22T20:16:38.592Z,71.95
2022-10-22T20:19:07.715Z,72.45
2022-10-22T20:21:35.632Z,71.68
2022-10-22T20:24:04.332Z,71.71
2022-10-22T20:26:31.974Z,72.07
2022-10-22T20:28:59.743Z,71.51
2022-10-22T20:31:29.593Z,72.44
2022-10-22T20:33:58.894Z,72.32
2022-10-22T20:36:27.591Z,72.00
2022-10-22T20:39:00.692Z,72.01
2022-10-22T20:41:28.563Z,71.83
2022-10-22T20:43:56.106Z,72.41
2022-10-22T20:46:31.986Z,72.03
2022-10-22T20:49:02.214Z,72.16
2022-10-22T20:51:30.087Z,72.07
2022-10-22T20:54:01.717Z,71.97
2022-10-22T20:56:29.219Z,72.24
2022-10-22T20:59:05.145Z,71.97
2022-10-22T21:01:45.162Z,72.08
2022-10-22T21:04:13.231Z,71.37
2022-10-22T21:06:43.736Z,72.58
2022-10-22T21:09:14.735Z,71.94
2022-10-22T21:11:43.685Z,71.88
2022-10-22T21:14:13.334Z,71.70
2022-10-22T21:16:43.338Z,72.19
2022-10-22T21:19:10.890Z,72.30
2022-10-22T21:21:38.392Z,71.89
2022-10-22T21:24:05.955Z,72.37
2022-10-22T21:26:36.370Z,71.70
2022-10-22T21:29:03.969Z,71.90
2022-10-22T21:31:31.559Z,71.83
2022-10-22T21:33:59.003Z,71.28
2022-10-22T21:36:26.573Z,72.05
2022-10-22T21:38:57.632Z,72.06
2022-10-22T21:41:27.800Z,71.79
2022-10-22T21:43:55.374Z,71.61
2022-10-22T21:46:25.478Z,71.58
2022-10-22T21:48:54.948Z,71.78
2022-10-22T21:51:23.806Z,71.89
2022-10-22T21:56:35.256Z,72.65
2022-10-22T21:59:04.859Z,72.17
2022-10-22T22:01:33.095Z,72.08
2022-10-22T22:04:00.978Z,71.15
2022-10-22T22:06:33.445Z,71.56
2022-10-22T22:09:03.489Z,71.28
2022-10-22T22:11:31.647Z,71.38
2022-10-22T22:13:59.758Z,71.88
2022-10-22T22:16:30.480Z,70.88
2022-10-22T22:21:39.755Z,71.75
2022-10-22T22:24:08.869Z,71.24
2022-10-22T22:26:36.882Z,71.13
2022-10-22T22:29:05.707Z,70.58
2022-10-22T22:31:35.085Z,70.73
2022-10-22T22:34:08.100Z,70.86
2022-10-22T22:36:38.714Z,70.31
2022-10-22T22:39:08.210Z,70.50
2022-10-22T22:41:38.388Z,71.14
2022-10-22T22:44:06.048Z,70.92
2022-10-22T22:46:33.641Z,70.80
2022-10-22T22:49:01.221Z,70.55
2022-10-22T22:51:28.696Z,71.16
2022-10-22T22:53:58.336Z,71.16
2022-10-22T22:56:28.552Z,71.02
2022-10-22T22:58:56.434Z,70.55
2022-10-22T23:01:25.786Z,71.16
2022-10-22T23:03:57.681Z,70.49
2022-10-22T23:06:31.923Z,71.07
2022-10-22T23:09:00.130Z,71.49
2022-10-22T23:11:28.964Z,70.71
2022-10-22T23:13:59.456Z,71.53
2022-10-22T23:16:30.310Z,70.59
2022-10-22T23:19:01.497Z,71.00
2022-10-22T23:21:35.472Z,71.12
2022-10-22T23:24:05.906Z,70.88
2022-10-22T23:26:39.938Z,70.93
2022-10-22T23:29:11.518Z,70.79
2022-10-22T23:31:39.146Z,70.61
2022-10-22T23:34:07.599Z,71.29
2022-10-22T23:36:37.372Z,71.16
2022-10-22T23:39:11.006Z,70.38
2022-10-22T23:41:38.819Z,70.66
2022-10-22T23:44:07.525Z,70.73
2022-10-22T23:46:35.640Z,70.52
2022-10-22T23:49:03.067Z,70.58
2022-10-22T23:51:30.526Z,71.13
2022-10-22T23:54:04.806Z,71.14
2022-10-22T23:56:33.143Z,70.29
2022-10-22T23:59:00.906Z,71.03
